sensor_id;sensor_type;location;lat;lon;timestamp;temperature;humidity
54622;DHT22;40521;53.146;6.556;2022-10-31T00:01:22;11.60;99.90
54622;DHT22;40521;53.146;6.556;2022-10-31T00:03:48;11.70;99.90
54622;DHT22;40521;53.146;6.556;2022-10-31T00:06:15;11.50;99.90
54622;DHT22;40521;53.146;6.556;2022-10-31T00:08:44;11.60;99.90
54622;DHT22;40521;53.146;6.556;2022-10-31T00:11:10;11.40;99.90
54622;DHT22;40521;53.146;6.556;2022-10-31T00:13:38;11.60;99.90
54622;DHT22;40521;53.146;6.556;2022-10-31T00:16:04;11.40;99.90
54622;DHT22;40521;53.146;6.556;2022-10-31T00:18:32;11.50;99.90
54622;DHT22;40521;53.146;6.556;2022-10-31T00:20:58;11.50;99.90
54622;DHT22;40521;53.146;6.556;2022-10-31T00:23:24;12.10;99.90
54622;DHT22;40521;53.146;6.556;2022-10-31T00:25:50;11.30;99.90
54622;DHT22;40521;53.146;6.556;2022-10-31T00:28:18;11.30;99.90
54622;DHT22;40521;53.146;6.556;2022-10-31T00:30:43;11.50;99.90
54622;DHT22;40521;53.146;6.556;2022-10-31T00:33:09;11.20;99.90
54622;DHT22;40521;53.146;6.556;2022-10-31T00:35:38;11.30;99.90
54622;DHT22;40521;53.146;6.556;2022-10-31T00:38:03;11.80;99.90
54622;DHT22;40521;53.146;6.556;2022-10-31T00:40:29;11.20;99.90
54622;DHT22;40521;53.146;6.556;2022-10-31T00:42:55;11.50;99.90
54622;DHT22;40521;53.146;6.556;2022-10-31T00:45:20;11.60;99.90
54622;DHT22;40521;53.146;6.556;2022-10-31T00:47:48;11.20;99.90
54622;DHT22;40521;53.146;6.556;2022-10-31T00:50:14;11.30;99.90
54622;DHT22;40521;53.146;6.556;2022-10-31T00:52:40;11.20;99.90
54622;DHT22;40521;53.146;6.556;2022-10-31T00:55:05;11.20;99.90
54622;DHT22;40521;53.146;6.556;2022-10-31T00:57:31;11.10;99.90
54622;DHT22;40521;53.146;6.556;2022-10-31T00:59:57;11.10;99.90
54622;DHT22;40521;53.146;6.556;2022-10-31T01:02:22;11.20;99.90
54622;DHT22;40521;53.146;6.556;2022-10-31T01:04:48;11.10;99.90
54622;DHT22;40521;53.146;6.556;2022-10-31T01:07:16;11.10;99.90
54622;DHT22;40521;53.146;6.556;2022-10-31T01:09:42;11.00;99.90
54622;DHT22;40521;53.146;6.556;2022-10-31T01:12:07;11.00;99.90
54622;DHT22;40521;53.146;6.556;2022-10-31T01:14:33;11.00;99.90
54622;DHT22;40521;53.146;6.556;2022-10-31T01:17:01;11.00;99.90
54622;DHT22;40521;53.146;6.556;2022-10-31T01:19:29;11.00;99.90
54622;DHT22;40521;53.146;6.556;2022-10-31T01:21:55;11.00;99.90
54622;DHT22;40521;53.146;6.556;2022-10-31T01:24:21;11.10;99.90
54622;DHT22;40521;53.146;6.556;2022-10-31T01:26:47;11.10;99.90
54622;DHT22;40521;53.146;6.556;2022-10-31T01:29:18;10.90;99.90
54622;DHT22;40521;53.146;6.556;2022-10-31T01:31:44;10.90;99.90
54622;DHT22;40521;53.146;6.556;2022-10-31T01:34:13;11.00;99.90
54622;DHT22;40521;53.146;6.556;2022-10-31T01:36:39;11.20;99.90
54622;DHT22;40521;53.146;6.556;2022-10-31T01:39:09;11.00;99.90
54622;DHT22;40521;53.146;6.556;2022-10-31T01:41:36;11.00;99.90
54622;DHT22;40521;53.146;6.556;2022-10-31T01:49:13;10.90;99.90
54622;DHT22;40521;53.146;6.556;2022-10-31T01:51:41;10.90;99.90
54622;DHT22;40521;53.146;6.556;2022-10-31T01:54:09;10.90;99.90
54622;DHT22;40521;53.146;6.556;2022-10-31T01:56:37;10.80;99.90
54622;DHT22;40521;53.146;6.556;2022-10-31T01:59:06;10.80;99.90
54622;DHT22;40521;53.146;6.556;2022-10-31T02:01:33;11.00;99.90
54622;DHT22;40521;53.146;6.556;2022-10-31T02:03:58;10.80;99.90
54622;DHT22;40521;53.146;6.556;2022-10-31T02:06:33;10.80;99.90
54622;DHT22;40521;53.146;6.556;2022-10-31T02:09:04;10.80;99.90
54622;DHT22;40521;53.146;6.556;2022-10-31T02:11:30;10.70;99.90
54622;DHT22;40521;53.146;6.556;2022-10-31T02:13:58;9.20;99.90
54622;DHT22;40521;53.146;6.556;2022-10-31T02:16:25;10.70;99.90
54622;DHT22;40521;53.146;6.556;2022-10-31T02:18:51;10.60;99.90
54622;DHT22;40521;53.146;6.556;2022-10-31T02:21:21;10.70;99.90
54622;DHT22;40521;53.146;6.556;2022-10-31T02:32:36;10.50;99.90
54622;DHT22;40521;53.146;6.556;2022-10-31T02:37:29;10.50;99.90
54622;DHT22;40521;53.146;6.556;2022-10-31T02:40:12;9.00;99.90
54622;DHT22;40521;53.146;6.556;2022-10-31T02:42:43;10.40;99.90
54622;DHT22;40521;53.146;6.556;2022-10-31T02:45:14;10.40;99.90
54622;DHT22;40521;53.146;6.556;2022-10-31T02:47:43;10.20;99.90
54622;DHT22;40521;53.146;6.556;2022-10-31T02:50:19;10.60;99.90
54622;DHT22;40521;53.146;6.556;2022-10-31T02:52:49;10.60;99.90
54622;DHT22;40521;53.146;6.556;2022-10-31T02:57:51;10.60;99.90
54622;DHT22;40521;53.146;6.556;2022-10-31T03:00:17;10.70;99.90
54622;DHT22;40521;53.146;6.556;2022-10-31T03:10:31;10.40;99.90
54622;DHT22;40521;53.146;6.556;2022-10-31T03:13:11;10.50;99.90
54622;DHT22;40521;53.146;6.556;2022-10-31T03:15:40;10.30;99.90
54622;DHT22;40521;53.146;6.556;2022-10-31T03:18:13;10.50;99.90
54622;DHT22;40521;53.146;6.556;2022-10-31T03:20:41;10.50;99.90
54622;DHT22;40521;53.146;6.556;2022-10-31T03:23:08;10.30;99.90
54622;DHT22;40521;53.146;6.556;2022-10-31T03:25:36;10.30;99.90
54622;DHT22;40521;53.146;6.556;2022-10-31T03:28:03;10.30;99.90
54622;DHT22;40521;53.146;6.556;2022-10-31T03:30:29;10.30;99.90
54622;DHT22;40521;53.146;6.556;2022-10-31T03:32:59;10.30;99.90
54622;DHT22;40521;53.146;6.556;2022-10-31T03:35:26;10.30;99.90
54622;DHT22;40521;53.146;6.556;2022-10-31T03:37:53;10.30;99.90
54622;DHT22;40521;53.146;6.556;2022-10-31T03:40:20;10.20;99.90
54622;DHT22;40521;53.146;6.556;2022-10-31T03:42:50;10.20;99.90
54622;DHT22;40521;53.146;6.556;2022-10-31T03:45:24;10.10;99.90
54622;DHT22;40521;53.146;6.556;2022-10-31T03:47:53;10.30;99.90
54622;DHT22;40521;53.146;6.556;2022-10-31T03:50:19;10.20;99.90
54622;DHT22;40521;53.146;6.556;2022-10-31T03:55:17;10.20;99.90
54622;DHT22;40521;53.146;6.556;2022-10-31T03:57:44;10.30;99.90
54622;DHT22;40521;53.146;6.556;2022-10-31T04:00:11;10.10;99.90
54622;DHT22;40521;53.146;6.556;2022-10-31T04:02:39;10.10;99.90
54622;DHT22;40521;53.146;6.556;2022-10-31T04:05:05;10.00;99.90
54622;DHT22;40521;53.146;6.556;2022-10-31T04:07:36;10.10;99.90
54622;DHT22;40521;53.146;6.556;2022-10-31T04:10:06;10.10;99.90
54622;DHT22;40521;53.146;6.556;2022-10-31T04:12:33;10.00;99.90
54622;DHT22;40521;53.146;6.556;2022-10-31T04:15:03;10.00;99.90
54622;DHT22;40521;53.146;6.556;2022-10-31T04:17:31;9.90;99.90
54622;DHT22;40521;53.146;6.556;2022-10-31T04:19:59;9.90;99.90
54622;DHT22;40521;53.146;6.556;2022-10-31T04:22:32;9.90;99.90
54622;DHT22;40521;53.146;6.556;2022-10-31T04:25:06;8.70;99.90
54622;DHT22;40521;53.146;6.556;2022-10-31T04:27:31;9.80;99.90
54622;DHT22;40521;53.146;6.556;2022-10-31T04:29:59;9.80;99.90
54622;DHT22;40521;53.146;6.556;2022-10-31T04:32:25;9.80;99.90
54622;DHT22;40521;53.146;6.556;2022-10-31T04:34:51;9.70;99.90
54622;DHT22;40521;53.146;6.556;2022-10-31T04:37:17;9.80;99.90
54622;DHT22;40521;53.146;6.556;2022-10-31T04:39:45;9.80;99.90
54622;DHT22;40521;53.146;6.556;2022-10-31T04:42:10;9.80;99.90
54622;DHT22;40521;53.146;6.556;2022-10-31T04:44:36;9.70;99.90
54622;DHT22;40521;53.146;6.556;2022-10-31T04:47:02;9.70;99.90
54622;DHT22;40521;53.146;6.556;2022-10-31T04:49:27;9.80;99.90
54622;DHT22;40521;53.146;6.556;2022-10-31T04:51:53;9.60;99.90
54622;DHT22;40521;53.146;6.556;2022-10-31T04:54:19;9.70;99.90
54622;DHT22;40521;53.146;6.556;2022-10-31T04:56:47;9.60;99.90
54622;DHT22;40521;53.146;6.556;2022-10-31T04:59:13;10.10;99.90
54622;DHT22;40521;53.146;6.556;2022-10-31T05:01:39;9.80;99.90
54622;DHT22;40521;53.146;6.556;2022-10-31T05:04:04;10.00;99.90
54622;DHT22;40521;53.146;6.556;2022-10-31T05:06:30;9.60;99.90
54622;DHT22;40521;53.146;6.556;2022-10-31T05:08:55;9.50;99.90
54622;DHT22;40521;53.146;6.556;2022-10-31T05:11:21;9.60;99.90
54622;DHT22;40521;53.146;6.556;2022-10-31T05:13:47;9.50;99.90
54622;DHT22;40521;53.146;6.556;2022-10-31T05:16:12;9.40;99.90
54622;DHT22;40521;53.146;6.556;2022-10-31T05:18:38;9.40;99.90
54622;DHT22;40521;53.146;6.556;2022-10-31T05:21:04;9.40;99.90
54622;DHT22;40521;53.146;6.556;2022-10-31T05:23:29;9.40;99.90
54622;DHT22;40521;53.146;6.556;2022-10-31T05:25:55;9.30;99.90
54622;DHT22;40521;53.146;6.556;2022-10-31T05:28:21;9.60;99.90
54622;DHT22;40521;53.146;6.556;2022-10-31T05:30:49;9.30;99.90
54622;DHT22;40521;53.146;6.556;2022-10-31T05:33:14;9.30;99.90
54622;DHT22;40521;53.146;6.556;2022-10-31T05:35:40;8.00;99.90
54622;DHT22;40521;53.146;6.556;2022-10-31T05:38:06;10.30;99.90
54622;DHT22;40521;53.146;6.556;2022-10-31T05:40:34;9.30;99.90
54622;DHT22;40521;53.146;6.556;2022-10-31T05:42:59;9.20;99.90
54622;DHT22;40521;53.146;6.556;2022-10-31T05:45:25;9.20;99.90
54622;DHT22;40521;53.146;6.556;2022-10-31T05:47:54;9.20;99.90
54622;DHT22;40521;53.146;6.556;2022-10-31T05:50:21;9.60;99.90
54622;DHT22;40521;53.146;6.556;2022-10-31T05:52:54;9.20;99.90
54622;DHT22;40521;53.146;6.556;2022-10-31T05:55:20;9.20;99.90
54622;DHT22;40521;53.146;6.556;2022-10-31T05:57:46;9.20;99.90
54622;DHT22;40521;53.146;6.556;2022-10-31T06:02:38;9.10;99.90
54622;DHT22;40521;53.146;6.556;2022-10-31T06:05:04;8.10;99.90
54622;DHT22;40521;53.146;6.556;2022-10-31T06:07:33;9.20;99.90
54622;DHT22;40521;53.146;6.556;2022-10-31T06:09:59;9.20;99.90
54622;DHT22;40521;53.146;6.556;2022-10-31T06:12:25;9.20;99.90
54622;DHT22;40521;53.146;6.556;2022-10-31T06:14:51;9.10;99.90
54622;DHT22;40521;53.146;6.556;2022-10-31T06:17:19;9.20;99.90
54622;DHT22;40521;53.146;6.556;2022-10-31T06:19:54;8.20;99.90
54622;DHT22;40521;53.146;6.556;2022-10-31T06:22:19;9.30;99.90
54622;DHT22;40521;53.146;6.556;2022-10-31T06:24:45;9.10;99.90
54622;DHT22;40521;53.146;6.556;2022-10-31T06:27:11;9.10;99.90
54622;DHT22;40521;53.146;6.556;2022-10-31T06:29:39;9.10;99.90
54622;DHT22;40521;53.146;6.556;2022-10-31T06:32:05;8.10;99.90
54622;DHT22;40521;53.146;6.556;2022-10-31T06:34:33;9.10;99.90
54622;DHT22;40521;53.146;6.556;2022-10-31T06:36:59;9.10;99.90
54622;DHT22;40521;53.146;6.556;2022-10-31T06:39:27;9.10;99.90
54622;DHT22;40521;53.146;6.556;2022-10-31T06:41:55;9.10;99.90
54622;DHT22;40521;53.146;6.556;2022-10-31T06:44:21;9.10;99.90
54622;DHT22;40521;53.146;6.556;2022-10-31T06:46:47;9.00;99.90
54622;DHT22;40521;53.146;6.556;2022-10-31T06:49:13;9.00;99.90
54622;DHT22;40521;53.146;6.556;2022-10-31T06:51:38;9.00;99.90
54622;DHT22;40521;53.146;6.556;2022-10-31T06:54:06;9.00;99.90
54622;DHT22;40521;53.146;6.556;2022-10-31T06:56:32;9.00;99.90
54622;DHT22;40521;53.146;6.556;2022-10-31T06:58:57;8.90;99.90
54622;DHT22;40521;53.146;6.556;2022-10-31T07:01:23;9.10;99.90
54622;DHT22;40521;53.146;6.556;2022-10-31T07:03:52;9.10;99.90
54622;DHT22;40521;53.146;6.556;2022-10-31T07:06:20;8.80;99.90
54622;DHT22;40521;53.146;6.556;2022-10-31T07:08:49;9.00;99.90
54622;DHT22;40521;53.146;6.556;2022-10-31T07:11:21;9.00;99.90
54622;DHT22;40521;53.146;6.556;2022-10-31T07:14:07;7.90;99.90
54622;DHT22;40521;53.146;6.556;2022-10-31T07:16:55;9.10;99.90
54622;DHT22;40521;53.146;6.556;2022-10-31T07:19:23;9.30;99.90
54622;DHT22;40521;53.146;6.556;2022-10-31T07:21:52;9.10;99.90
54622;DHT22;40521;53.146;6.556;2022-10-31T07:24:17;9.40;99.90
54622;DHT22;40521;53.146;6.556;2022-10-31T07:26:51;9.10;99.90
54622;DHT22;40521;53.146;6.556;2022-10-31T07:29:22;9.20;99.90
54622;DHT22;40521;53.146;6.556;2022-10-31T07:31:48;9.80;99.90
54622;DHT22;40521;53.146;6.556;2022-10-31T07:34:34;8.10;99.90
54622;DHT22;40521;53.146;6.556;2022-10-31T07:40:03;9.50;99.90
54622;DHT22;40521;53.146;6.556;2022-10-31T07:42:43;9.30;99.90
54622;DHT22;40521;53.146;6.556;2022-10-31T07:45:09;9.10;99.90
54622;DHT22;40521;53.146;6.556;2022-10-31T07:47:39;9.60;99.90
54622;DHT22;40521;53.146;6.556;2022-10-31T07:50:07;9.50;99.90
54622;DHT22;40521;53.146;6.556;2022-10-31T07:52:33;9.60;99.90
54622;DHT22;40521;53.146;6.556;2022-10-31T07:55:02;10.50;99.90
54622;DHT22;40521;53.146;6.556;2022-10-31T07:57:28;9.70;99.90
54622;DHT22;40521;53.146;6.556;2022-10-31T07:59:53;9.70;99.90
54622;DHT22;40521;53.146;6.556;2022-10-31T08:02:19;9.80;99.90
54622;DHT22;40521;53.146;6.556;2022-10-31T08:04:47;9.80;99.90
54622;DHT22;40521;53.146;6.556;2022-10-31T08:07:16;10.00;99.90
54622;DHT22;40521;53.146;6.556;2022-10-31T08:09:44;10.10;99.90
54622;DHT22;40521;53.146;6.556;2022-10-31T08:12:10;10.00;99.90
54622;DHT22;40521;53.146;6.556;2022-10-31T08:14:35;10.00;99.90
54622;DHT22;40521;53.146;6.556;2022-10-31T08:17:01;10.10;99.90
54622;DHT22;40521;53.146;6.556;2022-10-31T08:19:27;8.90;99.90
54622;DHT22;40521;53.146;6.556;2022-10-31T08:21:53;9.30;99.90
54622;DHT22;40521;53.146;6.556;2022-10-31T08:24:20;10.20;99.90
54622;DHT22;40521;53.146;6.556;2022-10-31T08:26:46;10.20;99.90
54622;DHT22;40521;53.146;6.556;2022-10-31T08:29:12;10.20;99.90
54622;DHT22;40521;53.146;6.556;2022-10-31T08:31:38;10.30;99.90
54622;DHT22;40521;53.146;6.556;2022-10-31T08:34:06;10.40;99.90
54622;DHT22;40521;53.146;6.556;2022-10-31T08:36:40;10.40;99.90
54622;DHT22;40521;53.146;6.556;2022-10-31T08:39:14;10.40;99.90
54622;DHT22;40521;53.146;6.556;2022-10-31T08:41:52;10.40;99.90
54622;DHT22;40521;53.146;6.556;2022-10-31T08:44:20;10.50;99.90
54622;DHT22;40521;53.146;6.556;2022-10-31T08:46:49;10.40;99.90
54622;DHT22;40521;53.146;6.556;2022-10-31T08:49:22;12.10;99.90
54622;DHT22;40521;53.146;6.556;2022-10-31T08:51:48;10.50;99.90
54622;DHT22;40521;53.146;6.556;2022-10-31T08:54:31;10.90;99.90
54622;DHT22;40521;53.146;6.556;2022-10-31T08:57:04;10.70;99.90
54622;DHT22;40521;53.146;6.556;2022-10-31T08:59:30;10.50;99.90
54622;DHT22;40521;53.146;6.556;2022-10-31T09:01:56;9.40;99.90
54622;DHT22;40521;53.146;6.556;2022-10-31T09:04:24;10.50;99.90
54622;DHT22;40521;53.146;6.556;2022-10-31T09:06:52;10.60;99.90
54622;DHT22;40521;53.146;6.556;2022-10-31T09:09:20;10.70;99.90
54622;DHT22;40521;53.146;6.556;2022-10-31T09:11:45;10.60;99.90
54622;DHT22;40521;53.146;6.556;2022-10-31T09:14:13;10.60;99.90
54622;DHT22;40521;53.146;6.556;2022-10-31T09:16:39;10.70;99.90
54622;DHT22;40521;53.146;6.556;2022-10-31T09:19:07;10.70;99.90
54622;DHT22;40521;53.146;6.556;2022-10-31T09:21:35;10.70;99.90
54622;DHT22;40521;53.146;6.556;2022-10-31T09:24:08;10.80;99.90
54622;DHT22;40521;53.146;6.556;2022-10-31T09:26:34;10.80;99.90
54622;DHT22;40521;53.146;6.556;2022-10-31T09:29:00;10.80;99.90
54622;DHT22;40521;53.146;6.556;2022-10-31T09:31:34;10.90;99.90
54622;DHT22;40521;53.146;6.556;2022-10-31T09:34:00;10.90;99.90
54622;DHT22;40521;53.146;6.556;2022-10-31T09:36:28;11.00;99.90
54622;DHT22;40521;53.146;6.556;2022-10-31T09:39:01;11.00;99.90
54622;DHT22;40521;53.146;6.556;2022-10-31T09:46:58;12.50;99.90
54622;DHT22;40521;53.146;6.556;2022-10-31T09:57:12;11.70;99.90
54622;DHT22;40521;53.146;6.556;2022-10-31T09:59:39;11.70;99.90
54622;DHT22;40521;53.146;6.556;2022-10-31T10:02:06;11.80;99.90
54622;DHT22;40521;53.146;6.556;2022-10-31T10:04:38;11.90;99.90
54622;DHT22;40521;53.146;6.556;2022-10-31T10:07:12;11.90;99.90
54622;DHT22;40521;53.146;6.556;2022-10-31T10:09:39;11.90;99.90
54622;DHT22;40521;53.146;6.556;2022-10-31T10:17:27;12.20;99.90
54622;DHT22;40521;53.146;6.556;2022-10-31T10:25:23;12.30;99.90
54622;DHT22;40521;53.146;6.556;2022-10-31T10:30:36;12.30;99.90
54622;DHT22;40521;53.146;6.556;2022-10-31T10:33:05;12.30;99.90
54622;DHT22;40521;53.146;6.556;2022-10-31T10:35:34;12.30;99.90
54622;DHT22;40521;53.146;6.556;2022-10-31T10:38:19;12.30;99.90
54622;DHT22;40521;53.146;6.556;2022-10-31T10:40:47;12.40;99.90
54622;DHT22;40521;53.146;6.556;2022-10-31T10:51:44;12.60;99.90
54622;DHT22;40521;53.146;6.556;2022-10-31T10:59:19;12.70;99.90
54622;DHT22;40521;53.146;6.556;2022-10-31T11:01:45;12.70;99.90
54622;DHT22;40521;53.146;6.556;2022-10-31T11:04:15;12.80;99.90
54622;DHT22;40521;53.146;6.556;2022-10-31T11:06:56;13.00;99.90
54622;DHT22;40521;53.146;6.556;2022-10-31T11:09:21;13.10;99.90
54622;DHT22;40521;53.146;6.556;2022-10-31T11:11:47;13.10;99.90
54622;DHT22;40521;53.146;6.556;2022-10-31T11:14:13;13.20;99.90
54622;DHT22;40521;53.146;6.556;2022-10-31T11:16:40;13.30;99.90
54622;DHT22;40521;53.146;6.556;2022-10-31T11:19:09;13.50;99.90
54622;DHT22;40521;53.146;6.556;2022-10-31T11:21:42;13.60;99.90
54622;DHT22;40521;53.146;6.556;2022-10-31T11:26:38;13.70;99.90
54622;DHT22;40521;53.146;6.556;2022-10-31T11:29:05;13.70;99.90
54622;DHT22;40521;53.146;6.556;2022-10-31T11:31:34;13.80;99.90
54622;DHT22;40521;53.146;6.556;2022-10-31T11:34:00;13.80;99.90
54622;DHT22;40521;53.146;6.556;2022-10-31T11:36:29;13.80;99.90
54622;DHT22;40521;53.146;6.556;2022-10-31T11:38:55;13.80;99.90
54622;DHT22;40521;53.146;6.556;2022-10-31T11:41:28;13.80;99.90
54622;DHT22;40521;53.146;6.556;2022-10-31T11:43:59;13.70;99.90
54622;DHT22;40521;53.146;6.556;2022-10-31T11:46:46;13.80;99.90
54622;DHT22;40521;53.146;6.556;2022-10-31T11:49:15;12.80;99.90
54622;DHT22;40521;53.146;6.556;2022-10-31T11:51:46;14.50;99.90
54622;DHT22;40521;53.146;6.556;2022-10-31T11:54:20;13.90;99.90
54622;DHT22;40521;53.146;6.556;2022-10-31T11:56:49;13.80;99.90
54622;DHT22;40521;53.146;6.556;2022-10-31T11:59:29;13.50;99.90
54622;DHT22;40521;53.146;6.556;2022-10-31T12:02:00;13.90;99.90
54622;DHT22;40521;53.146;6.556;2022-10-31T12:04:37;14.00;99.90
54622;DHT22;40521;53.146;6.556;2022-10-31T12:07:15;14.40;99.90
54622;DHT22;40521;53.146;6.556;2022-10-31T12:09:46;14.10;99.90
54622;DHT22;40521;53.146;6.556;2022-10-31T12:14:46;14.10;99.90
54622;DHT22;40521;53.146;6.556;2022-10-31T12:28:11;14.40;99.90
54622;DHT22;40521;53.146;6.556;2022-10-31T12:30:40;14.40;99.90
54622;DHT22;40521;53.146;6.556;2022-10-31T12:35:45;13.50;99.90
54622;DHT22;40521;53.146;6.556;2022-10-31T12:38:38;14.60;99.90
54622;DHT22;40521;53.146;6.556;2022-10-31T12:41:12;14.70;99.90
54622;DHT22;40521;53.146;6.556;2022-10-31T12:43:51;14.60;99.90
54622;DHT22;40521;53.146;6.556;2022-10-31T12:49:01;14.40;99.90
54622;DHT22;40521;53.146;6.556;2022-10-31T12:51:46;16.00;99.90
54622;DHT22;40521;53.146;6.556;2022-10-31T13:10:05;15.50;99.90
54622;DHT22;40521;53.146;6.556;2022-10-31T13:12:34;15.30;99.90
54622;DHT22;40521;53.146;6.556;2022-10-31T13:15:05;14.20;99.90
54622;DHT22;40521;53.146;6.556;2022-10-31T13:17:45;14.70;99.90
54622;DHT22;40521;53.146;6.556;2022-10-31T13:25:54;14.70;99.90
54622;DHT22;40521;53.146;6.556;2022-10-31T13:31:08;13.70;99.90
54622;DHT22;40521;53.146;6.556;2022-10-31T13:33:38;14.60;99.90
54622;DHT22;40521;53.146;6.556;2022-10-31T13:41:26;14.70;99.90
54622;DHT22;40521;53.146;6.556;2022-10-31T13:48:57;14.00;99.90
54622;DHT22;40521;53.146;6.556;2022-10-31T13:51:31;14.30;99.90
54622;DHT22;40521;53.146;6.556;2022-10-31T13:54:00;13.80;99.90
54622;DHT22;40521;53.146;6.556;2022-10-31T13:56:37;14.10;99.90
54622;DHT22;40521;53.146;6.556;2022-10-31T13:59:04;14.30;99.90
54622;DHT22;40521;53.146;6.556;2022-10-31T14:01:34;14.80;99.90
54622;DHT22;40521;53.146;6.556;2022-10-31T14:04:12;13.90;99.90
54622;DHT22;40521;53.146;6.556;2022-10-31T14:06:51;14.20;99.90
54622;DHT22;40521;53.146;6.556;2022-10-31T14:09:18;14.70;99.90
54622;DHT22;40521;53.146;6.556;2022-10-31T14:11:51;14.80;99.90
54622;DHT22;40521;53.146;6.556;2022-10-31T14:14:20;13.60;99.90
54622;DHT22;40521;53.146;6.556;2022-10-31T14:16:55;14.50;99.90
54622;DHT22;40521;53.146;6.556;2022-10-31T14:19:22;14.60;99.90
54622;DHT22;40521;53.146;6.556;2022-10-31T14:21:50;15.10;99.90
54622;DHT22;40521;53.146;6.556;2022-10-31T14:27:00;15.30;99.90
54622;DHT22;40521;53.146;6.556;2022-10-31T14:29:33;13.60;99.90
54622;DHT22;40521;53.146;6.556;2022-10-31T14:34:41;14.10;99.90
54622;DHT22;40521;53.146;6.556;2022-10-31T14:39:40;15.00;99.90
54622;DHT22;40521;53.146;6.556;2022-10-31T14:53:00;14.30;99.90
54622;DHT22;40521;53.146;6.556;2022-10-31T14:55:26;13.20;99.90
54622;DHT22;40521;53.146;6.556;2022-10-31T14:57:56;14.50;99.90
54622;DHT22;40521;53.146;6.556;2022-10-31T15:00:28;14.40;99.90
54622;DHT22;40521;53.146;6.556;2022-10-31T15:03:09;13.10;99.90
54622;DHT22;40521;53.146;6.556;2022-10-31T15:05:41;14.40;99.90
54622;DHT22;40521;53.146;6.556;2022-10-31T15:08:50;14.30;99.90
54622;DHT22;40521;53.146;6.556;2022-10-31T15:10:58;14.50;99.90
54622;DHT22;40521;53.146;6.556;2022-10-31T15:13:27;14.30;99.90
54622;DHT22;40521;53.146;6.556;2022-10-31T15:15:56;14.40;99.90
54622;DHT22;40521;53.146;6.556;2022-10-31T15:18:26;14.30;99.90
54622;DHT22;40521;53.146;6.556;2022-10-31T15:20:58;14.20;99.90
54622;DHT22;40521;53.146;6.556;2022-10-31T15:23:32;13.00;99.90
54622;DHT22;40521;53.146;6.556;2022-10-31T15:26:02;14.20;99.90
54622;DHT22;40521;53.146;6.556;2022-10-31T15:28:34;14.20;99.90
54622;DHT22;40521;53.146;6.556;2022-10-31T15:31:00;14.10;99.90
54622;DHT22;40521;53.146;6.556;2022-10-31T15:33:39;14.10;99.90
54622;DHT22;40521;53.146;6.556;2022-10-31T15:36:42;14.10;99.90
54622;DHT22;40521;53.146;6.556;2022-10-31T15:39:10;14.10;99.90
54622;DHT22;40521;53.146;6.556;2022-10-31T15:44:39;13.90;99.90
54622;DHT22;40521;53.146;6.556;2022-10-31T15:47:28;13.90;99.90
54622;DHT22;40521;53.146;6.556;2022-10-31T15:50:06;13.90;99.90
54622;DHT22;40521;53.146;6.556;2022-10-31T15:52:45;13.90;99.90
54622;DHT22;40521;53.146;6.556;2022-10-31T15:55:16;13.80;99.90
54622;DHT22;40521;53.146;6.556;2022-10-31T15:57:45;13.80;99.90
54622;DHT22;40521;53.146;6.556;2022-10-31T16:05:36;14.00;99.90
54622;DHT22;40521;53.146;6.556;2022-10-31T16:08:02;13.70;99.90
54622;DHT22;40521;53.146;6.556;2022-10-31T16:10:27;13.70;99.90
54622;DHT22;40521;53.146;6.556;2022-10-31T16:13:00;13.70;99.90
54622;DHT22;40521;53.146;6.556;2022-10-31T16:15:29;13.70;99.90
54622;DHT22;40521;53.146;6.556;2022-10-31T16:17:55;13.70;99.90
54622;DHT22;40521;53.146;6.556;2022-10-31T16:20:29;12.80;99.90
54622;DHT22;40521;53.146;6.556;2022-10-31T16:22:57;13.70;99.90
54622;DHT22;40521;53.146;6.556;2022-10-31T16:28:01;13.60;99.90
54622;DHT22;40521;53.146;6.556;2022-10-31T16:30:38;13.30;99.90
54622;DHT22;40521;53.146;6.556;2022-10-31T16:33:05;13.60;99.90
54622;DHT22;40521;53.146;6.556;2022-10-31T16:37:59;13.60;99.90
54622;DHT22;40521;53.146;6.556;2022-10-31T16:40:25;13.50;99.90
54622;DHT22;40521;53.146;6.556;2022-10-31T16:42:51;13.50;99.90
54622;DHT22;40521;53.146;6.556;2022-10-31T16:45:19;13.40;99.90
54622;DHT22;40521;53.146;6.556;2022-10-31T16:47:45;13.40;99.90
54622;DHT22;40521;53.146;6.556;2022-10-31T16:50:23;13.40;99.90
54622;DHT22;40521;53.146;6.556;2022-10-31T16:52:49;13.40;99.90
54622;DHT22;40521;53.146;6.556;2022-10-31T16:55:16;13.40;99.90
54622;DHT22;40521;53.146;6.556;2022-10-31T16:57:42;13.40;99.90
54622;DHT22;40521;53.146;6.556;2022-10-31T17:00:12;13.50;99.90
54622;DHT22;40521;53.146;6.556;2022-10-31T17:02:38;13.40;99.90
54622;DHT22;40521;53.146;6.556;2022-10-31T17:05:03;13.40;99.90
54622;DHT22;40521;53.146;6.556;2022-10-31T17:07:29;13.40;99.90
54622;DHT22;40521;53.146;6.556;2022-10-31T17:09:57;13.30;99.90
54622;DHT22;40521;53.146;6.556;2022-10-31T17:12:31;13.30;99.90
54622;DHT22;40521;53.146;6.556;2022-10-31T17:14:56;13.20;99.90
54622;DHT22;40521;53.146;6.556;2022-10-31T17:17:22;13.30;99.90
54622;DHT22;40521;53.146;6.556;2022-10-31T17:19:48;13.60;99.90
54622;DHT22;40521;53.146;6.556;2022-10-31T17:22:13;13.30;99.90
54622;DHT22;40521;53.146;6.556;2022-10-31T17:24:39;13.30;99.90
54622;DHT22;40521;53.146;6.556;2022-10-31T17:27:05;13.20;99.90
54622;DHT22;40521;53.146;6.556;2022-10-31T17:29:31;13.10;99.90
54622;DHT22;40521;53.146;6.556;2022-10-31T17:31:57;13.20;99.90
54622;DHT22;40521;53.146;6.556;2022-10-31T17:34:24;13.10;99.90
54622;DHT22;40521;53.146;6.556;2022-10-31T17:36:58;13.10;99.90
54622;DHT22;40521;53.146;6.556;2022-10-31T17:39:26;13.90;99.90
54622;DHT22;40521;53.146;6.556;2022-10-31T17:41:52;11.80;99.90
54622;DHT22;40521;53.146;6.556;2022-10-31T17:44:18;13.20;99.90
54622;DHT22;40521;53.146;6.556;2022-10-31T17:46:46;13.90;99.90
54622;DHT22;40521;53.146;6.556;2022-10-31T17:49:15;13.20;99.90
54622;DHT22;40521;53.146;6.556;2022-10-31T17:51:41;13.50;99.90
54622;DHT22;40521;53.146;6.556;2022-10-31T17:54:06;13.10;99.90
54622;DHT22;40521;53.146;6.556;2022-10-31T17:56:33;13.10;99.90
54622;DHT22;40521;53.146;6.556;2022-10-31T17:58:59;13.10;99.90
54622;DHT22;40521;53.146;6.556;2022-10-31T18:01:25;13.20;99.90
54622;DHT22;40521;53.146;6.556;2022-10-31T18:03:51;13.20;99.90
54622;DHT22;40521;53.146;6.556;2022-10-31T18:06:17;13.20;99.90
54622;DHT22;40521;53.146;6.556;2022-10-31T18:08:42;13.20;99.90
54622;DHT22;40521;53.146;6.556;2022-10-31T18:11:09;13.20;99.90
54622;DHT22;40521;53.146;6.556;2022-10-31T18:13:39;13.20;99.90
54622;DHT22;40521;53.146;6.556;2022-10-31T18:16:08;14.40;99.90
54622;DHT22;40521;53.146;6.556;2022-10-31T18:18:36;13.20;99.90
54622;DHT22;40521;53.146;6.556;2022-10-31T18:21:02;13.20;99.90
54622;DHT22;40521;53.146;6.556;2022-10-31T18:23:35;13.20;99.90
54622;DHT22;40521;53.146;6.556;2022-10-31T18:26:01;13.20;99.90
54622;DHT22;40521;53.146;6.556;2022-10-31T18:28:26;13.20;99.90